Time;durP1;ratioP1;P1;durP2;ratioP2;P2;SDS_P1;SDS_P2;PMS_P1;PMS_P2;Temp;Humidity;BMP_temperature;BMP_pressure;BME280_temperature;BME280_humidity;BME280_pressure;Samples;Min_cycle;Max_cycle;Signal;HPM_P1;HPM_P2
2022/10/11 00:01:29;;;;;;;13.43;3.42;;;;;;;;;;5017181;28;88887;-72
2022/10/11 00:03:56;;;;;;;11.23;3.08;;;;;;;;;;5016539;28;88777;-72
2022/10/11 00:06:22;;;;;;;11.35;2.95;;;;;;;;;;5010613;28;88197;-71
2022/10/11 00:08:48;;;;;;;11.90;3.35;;;;;;;;;;5010839;28;89091;-71
2022/10/11 00:11:14;;;;;;;7.95;2.83;;;;;;;;;;5017682;28;89023;-72
2022/10/11 00:13:41;;;;;;;10.77;3.33;;;;;;;;;;5019901;28;88124;-72
2022/10/11 00:16:10;;;;;;;7.55;2.97;;;;;;;;;;5012304;28;89003;-72
2022/10/11 00:18:37;;;;;;;18.85;2.70;;;;;;;;;;5003252;28;88306;-72
2022/10/11 00:21:05;;;;;;;5.15;1.92;;;;;;;;;;5012725;28;89362;-71
2022/10/11 00:23:32;;;;;;;8.30;3.17;;;;;;;;;;4998765;28;89020;-72
2022/10/11 00:25:59;;;;;;;8.45;2.65;;;;;;;;;;5010919;28;89021;-72
2022/10/11 00:28:25;;;;;;;11.98;3.08;;;;;;;;;;5008431;28;89426;-72
2022/10/11 00:30:52;;;;;;;10.50;3.22;;;;;;;;;;5003317;28;89151;-71
2022/10/11 00:33:18;;;;;;;8.10;3.00;;;;;;;;;;5007967;28;89010;-72
2022/10/11 00:35:44;;;;;;;8.25;2.97;;;;;;;;;;5017301;28;89456;-72
2022/10/11 00:38:11;;;;;;;11.55;3.45;;;;;;;;;;5000528;28;88083;-72
2022/10/11 00:40:37;;;;;;;10.27;3.80;;;;;;;;;;4999942;28;88843;-72
2022/10/11 00:43:03;;;;;;;7.97;2.65;;;;;;;;;;5011067;28;88063;-72
2022/10/11 00:45:29;;;;;;;6.07;2.97;;;;;;;;;;4997959;28;89493;-72
2022/10/11 00:48:03;;;;;;;10.90;3.47;;;;;;;;;;4997835;28;89072;-72
2022/10/11 00:50:31;;;;;;;14.20;3.60;;;;;;;;;;5006586;28;88232;-72
2022/10/11 00:53:00;;;;;;;8.60;3.22;;;;;;;;;;4998061;28;88038;-72
2022/10/11 00:55:28;;;;;;;9.82;2.97;;;;;;;;;;5014210;28;88489;-72
2022/10/11 00:57:55;;;;;;;10.40;2.88;;;;;;;;;;5007000;28;88786;-72
2022/10/11 01:00:21;;;;;;;10.27;2.47;;;;;;;;;;5016714;28;88800;-72
2022/10/11 01:02:47;;;;;;;7.80;2.78;;;;;;;;;;5015573;28;89111;-72
2022/10/11 01:05:15;;;;;;;9.68;3.10;;;;;;;;;;5015287;28;88063;-72
2022/10/11 01:08:00;;;;;;;8.40;2.95;;;;;;;;;;5012630;28;88741;-72
2022/10/11 01:10:27;;;;;;;6.77;2.73;;;;;;;;;;5014704;28;89029;-72
2022/10/11 01:13:12;;;;;;;10.35;3.10;;;;;;;;;;5015685;28;88165;-72
2022/10/11 01:15:49;;;;;;;8.20;2.58;;;;;;;;;;5014672;28;89157;-72
2022/10/11 01:18:20;;;;;;;10.45;2.83;;;;;;;;;;5011696;28;88117;-73
2022/10/11 01:20:51;;;;;;;8.43;2.80;;;;;;;;;;5018782;27;88787;-72
2022/10/11 01:23:20;;;;;;;11.82;2.80;;;;;;;;;;4999308;28;90189;-72
2022/10/11 01:25:52;;;;;;;8.98;2.35;;;;;;;;;;5001239;28;88186;-72
2022/10/11 01:28:37;;;;;;;7.63;2.55;;;;;;;;;;5012052;28;88815;-72
2022/10/11 01:31:13;;;;;;;7.47;2.50;;;;;;;;;;5003335;28;89924;-73
2022/10/11 01:33:44;;;;;;;6.07;2.70;;;;;;;;;;5011088;28;87983;-73
2022/10/11 01:36:29;;;;;;;7.40;2.63;;;;;;;;;;5014329;28;88755;-72
2022/10/11 01:38:58;;;;;;;7.78;2.60;;;;;;;;;;5015332;28;89073;-73
2022/10/11 01:41:27;;;;;;;7.63;3.00;;;;;;;;;;5011084;28;87291;-72
2022/10/11 01:43:56;;;;;;;9.35;2.25;;;;;;;;;;4999285;28;89431;-71
2022/10/11 01:46:22;;;;;;;9.20;2.55;;;;;;;;;;4996724;28;88137;-72
2022/10/11 01:48:50;;;;;;;7.90;2.80;;;;;;;;;;5000782;28;89020;-71
2022/10/11 01:51:18;;;;;;;9.20;2.17;;;;;;;;;;5004473;28;88904;-72
2022/10/11 01:53:53;;;;;;;15.25;2.35;;;;;;;;;;5007899;28;89365;-72
2022/10/11 01:56:24;;;;;;;7.78;2.38;;;;;;;;;;5014109;28;89102;-72
2022/10/11 01:59:09;;;;;;;6.88;2.40;;;;;;;;;;5017997;28;89420;-72
2022/10/11 02:01:47;;;;;;;5.25;2.20;;;;;;;;;;5015571;28;88089;-72
2022/10/11 02:04:28;;;;;;;4.00;1.80;;;;;;;;;;5018863;28;89878;-72
2022/10/11 02:07:02;;;;;;;6.30;2.25;;;;;;;;;;5009144;28;87854;-71
2022/10/11 02:09:36;;;;;;;7.78;2.20;;;;;;;;;;5003713;28;89269;-71
2022/10/11 02:12:06;;;;;;;6.53;2.00;;;;;;;;;;5016350;28;89331;-71
2022/10/11 02:14:35;;;;;;;6.27;1.90;;;;;;;;;;4999519;28;88818;-73
2022/10/11 02:17:06;;;;;;;8.45;2.25;;;;;;;;;;5015644;28;89504;-73
2022/10/11 02:19:52;;;;;;;10.50;2.38;;;;;;;;;;5018383;28;89304;-72
2022/10/11 02:22:20;;;;;;;6.03;2.28;;;;;;;;;;5016798;28;88217;-74
2022/10/11 02:24:49;;;;;;;14.10;2.72;;;;;;;;;;5010972;28;89181;-74
2022/10/11 02:27:18;;;;;;;11.15;2.38;;;;;;;;;;5018545;28;89342;-71
2022/10/11 02:29:46;;;;;;;6.43;1.75;;;;;;;;;;5011959;28;88796;-72
2022/10/11 02:32:13;;;;;;;4.65;2.03;;;;;;;;;;5019728;28;88640;-71
2022/10/11 02:35:06;;;;;;;7.38;1.85;;;;;;;;;;5018281;28;88006;-72
2022/10/11 02:37:41;;;;;;;4.90;2.25;;;;;;;;;;4996728;28;90886;-72
2022/10/11 02:40:14;;;;;;;6.00;1.83;;;;;;;;;;4997708;28;89864;-72
2022/10/11 02:42:43;;;;;;;8.05;2.22;;;;;;;;;;5001374;28;88774;-71
2022/10/11 02:45:22;;;;;;;7.68;1.83;;;;;;;;;;5017198;28;89301;-71
2022/10/11 02:47:48;;;;;;;6.10;1.90;;;;;;;;;;4999846;28;89337;-71
2022/10/11 02:50:15;;;;;;;8.07;1.70;;;;;;;;;;5029483;28;88165;-71
2022/10/11 02:52:41;;;;;;;14.75;2.50;;;;;;;;;;5006110;28;89065;-72
2022/10/11 02:55:08;;;;;;;7.68;2.08;;;;;;;;;;4997286;28;88120;-72
2022/10/11 02:57:34;;;;;;;9.55;2.33;;;;;;;;;;5003430;28;88995;-72
2022/10/11 03:00:00;;;;;;;5.10;2.13;;;;;;;;;;5015545;28;89067;-72
2022/10/11 03:02:27;;;;;;;5.15;1.80;;;;;;;;;;5011822;28;90788;-72
2022/10/11 03:04:53;;;;;;;3.42;1.60;;;;;;;;;;5015205;28;89194;-72
2022/10/11 03:07:19;;;;;;;7.65;2.97;;;;;;;;;;5008765;28;89040;-72
2022/10/11 03:09:45;;;;;;;7.72;2.42;;;;;;;;;;5020214;28;88213;-71
2022/10/11 03:12:12;;;;;;;7.63;1.75;;;;;;;;;;5017574;28;88143;-72
2022/10/11 03:14:38;;;;;;;8.40;1.80;;;;;;;;;;5018050;28;88399;-73
2022/10/11 03:17:04;;;;;;;6.25;1.98;;;;;;;;;;5013036;28;88988;-72
2022/10/11 03:19:50;;;;;;;5.55;1.52;;;;;;;;;;5019530;28;88775;-72
2022/10/11 03:22:17;;;;;;;9.02;1.88;;;;;;;;;;5018961;28;87837;-72
2022/10/11 03:24:43;;;;;;;8.30;2.38;;;;;;;;;;4998788;28;88504;-73
2022/10/11 03:27:09;;;;;;;8.85;2.00;;;;;;;;;;5009339;28;89008;-72
2022/10/11 03:29:35;;;;;;;9.32;2.45;;;;;;;;;;5018532;28;88727;-72
2022/10/11 03:32:02;;;;;;;7.03;2.10;;;;;;;;;;5020089;28;89940;-72
2022/10/11 03:34:28;;;;;;;3.20;1.92;;;;;;;;;;5019206;28;87976;-71
2022/10/11 03:36:54;;;;;;;8.85;1.95;;;;;;;;;;5004519;28;90107;-72
2022/10/11 03:39:21;;;;;;;7.28;1.98;;;;;;;;;;5009269;28;89005;-72
2022/10/11 03:41:47;;;;;;;5.93;1.73;;;;;;;;;;5013797;28;88718;-72
2022/10/11 03:44:13;;;;;;;4.32;1.90;;;;;;;;;;5010739;28;88718;-72
2022/10/11 03:46:39;;;;;;;8.68;1.80;;;;;;;;;;5012440;28;90281;-71
2022/10/11 03:49:06;;;;;;;8.90;2.35;;;;;;;;;;4998722;28;88052;-71
2022/10/11 03:51:32;;;;;;;4.95;1.95;;;;;;;;;;4997731;28;88922;-72
2022/10/11 03:53:58;;;;;;;5.30;2.10;;;;;;;;;;5000373;28;90705;-73
2022/10/11 03:56:24;;;;;;;7.10;1.95;;;;;;;;;;4999564;28;90492;-72
2022/10/11 03:58:51;;;;;;;10.63;2.10;;;;;;;;;;5002162;28;89540;-72
2022/10/11 04:01:17;;;;;;;5.95;2.08;;;;;;;;;;5002774;28;89309;-72
2022/10/11 04:03:43;;;;;;;4.78;1.60;;;;;;;;;;5014366;28;89071;-72
2022/10/11 04:06:10;;;;;;;5.75;1.70;;;;;;;;;;5004892;28;89907;-73
2022/10/11 04:08:36;;;;;;;3.65;1.60;;;;;;;;;;5001926;28;88012;-72
2022/10/11 04:11:02;;;;;;;4.47;1.90;;;;;;;;;;5015105;28;88864;-72
2022/10/11 04:13:29;;;;;;;8.65;2.25;;;;;;;;;;5017173;28;88946;-73
2022/10/11 04:15:55;;;;;;;6.30;2.03;;;;;;;;;;5015859;28;88257;-72
2022/10/11 04:18:21;;;;;;;6.72;2.13;;;;;;;;;;5017760;28;90141;-73
2022/10/11 04:20:47;;;;;;;8.43;2.00;;;;;;;;;;4999207;28;88199;-73
2022/10/11 04:23:14;;;;;;;7.97;2.33;;;;;;;;;;5017444;28;87925;-72
2022/10/11 04:25:40;;;;;;;10.73;1.95;;;;;;;;;;5017363;28;88990;-72
2022/10/11 04:28:07;;;;;;;10.40;2.60;;;;;;;;;;5015691;28;88040;-72
2022/10/11 04:30:34;;;;;;;7.45;2.22;;;;;;;;;;4998146;28;89901;-72
2022/10/11 04:33:00;;;;;;;4.75;1.98;;;;;;;;;;5001170;28;89060;-72
2022/10/11 04:35:26;;;;;;;3.13;1.90;;;;;;;;;;5005784;28;87852;-72
2022/10/11 04:37:52;;;;;;;10.95;2.38;;;;;;;;;;5000795;28;87966;-72
2022/10/11 04:40:19;;;;;;;8.10;2.15;;;;;;;;;;5003459;28;88175;-72
2022/10/11 04:42:45;;;;;;;5.78;2.35;;;;;;;;;;5017274;28;88777;-72
2022/10/11 04:45:11;;;;;;;2.80;1.65;;;;;;;;;;5010036;28;88988;-72
2022/10/11 04:47:39;;;;;;;11.25;2.47;;;;;;;;;;5017850;28;88153;-72
2022/10/11 04:50:05;;;;;;;3.33;2.13;;;;;;;;;;5016336;28;89839;-72
2022/10/11 04:52:31;;;;;;;6.05;2.30;;;;;;;;;;5009656;28;89312;-72
2022/10/11 04:54:58;;;;;;;8.73;2.13;;;;;;;;;;4996804;28;88585;-72
2022/10/11 04:57:24;;;;;;;12.85;3.00;;;;;;;;;;5009631;28;88896;-72
2022/10/11 04:59:50;;;;;;;8.65;2.25;;;;;;;;;;5013995;28;88316;-72
2022/10/11 05:02:16;;;;;;;8.93;3.17;;;;;;;;;;5008067;28;88779;-72
2022/10/11 05:04:43;;;;;;;11.05;2.72;;;;;;;;;;5003320;28;89151;-73
2022/10/11 05:07:09;;;;;;;6.32;2.50;;;;;;;;;;5015228;28;88834;-72
2022/10/11 05:09:35;;;;;;;12.77;2.38;;;;;;;;;;5017593;28;89799;-72
2022/10/11 05:12:02;;;;;;;8.38;2.88;;;;;;;;;;5010319;28;88937;-72
2022/10/11 05:14:28;;;;;;;12.10;2.67;;;;;;;;;;5006077;28;87976;-72
2022/10/11 05:16:54;;;;;;;7.40;3.38;;;;;;;;;;5014191;28;88849;-72
2022/10/11 05:19:21;;;;;;;12.25;2.70;;;;;;;;;;5018499;28;89043;-73
2022/10/11 05:21:47;;;;;;;13.57;3.00;;;;;;;;;;5005661;28;90928;-72
2022/10/11 05:24:13;;;;;;;6.88;3.28;;;;;;;;;;5015805;28;88531;-72
2022/10/11 05:26:39;;;;;;;10.75;3.45;;;;;;;;;;4998878;28;88460;-72
2022/10/11 05:29:06;;;;;;;6.22;3.00;;;;;;;;;;5021629;28;89952;-72
2022/10/11 05:31:32;;;;;;;18.42;3.58;;;;;;;;;;5010657;28;90180;-72
2022/10/11 05:33:58;;;;;;;6.45;3.63;;;;;;;;;;5019181;28;88017;-72
2022/10/11 05:36:25;;;;;;;13.20;3.90;;;;;;;;;;5005640;28;88787;-73
2022/10/11 05:38:51;;;;;;;8.68;3.50;;;;;;;;;;5009745;28;89160;-72
2022/10/11 05:41:17;;;;;;;9.38;3.80;;;;;;;;;;5007691;28;88591;-72
2022/10/11 05:43:44;;;;;;;8.45;4.05;;;;;;;;;;4999880;28;88924;-73
2022/10/11 05:46:11;;;;;;;6.63;4.07;;;;;;;;;;5011927;28;88244;-73
2022/10/11 05:48:37;;;;;;;8.57;4.20;;;;;;;;;;5018835;28;88735;-73
2022/10/11 05:51:05;;;;;;;10.30;5.10;;;;;;;;;;5018439;28;89008;-73
2022/10/11 05:53:31;;;;;;;23.65;7.38;;;;;;;;;;5014724;28;88943;-74
2022/10/11 05:55:57;;;;;;;17.20;8.00;;;;;;;;;;5011880;28;89388;-73
2022/10/11 05:58:24;;;;;;;16.55;8.18;;;;;;;;;;5017980;28;92301;-73
2022/10/11 06:00:50;;;;;;;10.73;6.90;;;;;;;;;;5018255;28;88109;-73
2022/10/11 06:03:18;;;;;;;11.55;6.20;;;;;;;;;;5010057;28;88086;-72
2022/10/11 06:05:44;;;;;;;16.42;6.40;;;;;;;;;;4998766;28;88684;-72
2022/10/11 06:08:12;;;;;;;18.13;6.30;;;;;;;;;;5011984;28;88670;-73
2022/10/11 06:10:39;;;;;;;17.83;6.18;;;;;;;;;;5008905;28;92483;-72
2022/10/11 06:13:05;;;;;;;12.55;6.13;;;;;;;;;;5001512;28;91779;-72
2022/10/11 06:15:32;;;;;;;11.95;5.07;;;;;;;;;;5010937;28;92476;-73
2022/10/11 06:17:58;;;;;;;12.27;5.25;;;;;;;;;;4997349;28;93875;-72
2022/10/11 06:20:25;;;;;;;12.73;5.20;;;;;;;;;;4995543;28;94836;-72
2022/10/11 06:22:51;;;;;;;22.35;5.65;;;;;;;;;;4998888;28;95527;-72
2022/10/11 06:25:17;;;;;;;17.10;4.85;;;;;;;;;;5001018;28;93424;-72
2022/10/11 06:27:43;;;;;;;16.00;5.22;;;;;;;;;;5006398;28;93092;-73
2022/10/11 06:30:10;;;;;;;13.98;5.72;;;;;;;;;;5016895;28;93430;-73
2022/10/11 06:32:36;;;;;;;23.63;8.40;;;;;;;;;;5015785;28;92602;-73
2022/10/11 06:35:04;;;;;;;32.83;10.80;;;;;;;;;;5004104;28;93201;-72
2022/10/11 06:37:30;;;;;;;20.38;7.65;;;;;;;;;;4997194;28;92447;-73
2022/10/11 06:39:56;;;;;;;16.00;6.72;;;;;;;;;;4996199;28;92387;-72
2022/10/11 06:42:23;;;;;;;24.42;6.95;;;;;;;;;;5001693;28;95434;-72
2022/10/11 06:44:49;;;;;;;16.38;6.43;;;;;;;;;;4996504;28;94860;-73
2022/10/11 06:47:15;;;;;;;16.52;7.50;;;;;;;;;;5019317;28;92451;-72
2022/10/11 06:49:42;;;;;;;25.45;6.80;;;;;;;;;;4996457;28;93620;-73
2022/10/11 06:52:08;;;;;;;22.00;8.40;;;;;;;;;;4996639;28;92585;-73
2022/10/11 06:54:34;;;;;;;32.78;9.45;;;;;;;;;;5006388;28;93134;-73
2022/10/11 06:57:00;;;;;;;21.73;7.65;;;;;;;;;;5010019;28;93426;-73
2022/10/11 06:59:27;;;;;;;18.35;6.65;;;;;;;;;;4999308;28;92555;-72
2022/10/11 07:01:53;;;;;;;22.92;7.32;;;;;;;;;;5007975;28;93659;-73
2022/10/11 07:04:19;;;;;;;13.95;6.18;;;;;;;;;;5006320;28;92410;-72
2022/10/11 07:06:45;;;;;;;25.77;6.35;;;;;;;;;;5008613;28;92466;-72
2022/10/11 07:09:12;;;;;;;17.20;5.72;;;;;;;;;;5012165;28;94875;-72
2022/10/11 07:11:38;;;;;;;15.70;5.75;;;;;;;;;;4998236;28;92553;-72
2022/10/11 07:14:06;;;;;;;11.77;5.32;;;;;;;;;;5016340;28;93162;-72
2022/10/11 07:16:34;;;;;;;14.65;5.40;;;;;;;;;;5002884;28;93580;-71
2022/10/11 07:19:01;;;;;;;16.73;6.07;;;;;;;;;;4996111;28;92576;-72
2022/10/11 07:21:28;;;;;;;17.02;4.97;;;;;;;;;;4996493;28;93069;-72
2022/10/11 07:23:55;;;;;;;15.30;4.75;;;;;;;;;;5004990;28;93130;-71
2022/10/11 07:26:21;;;;;;;22.25;5.60;;;;;;;;;;5016857;28;91725;-71
2022/10/11 07:28:47;;;;;;;18.73;4.65;;;;;;;;;;5019082;28;92457;-72
2022/10/11 07:31:15;;;;;;;22.25;5.55;;;;;;;;;;5014584;28;92485;-72
2022/10/11 07:33:41;;;;;;;13.82;4.35;;;;;;;;;;5014837;28;94785;-72
2022/10/11 07:36:08;;;;;;;14.10;5.22;;;;;;;;;;5016228;28;94831;-72
2022/10/11 07:38:37;;;;;;;23.02;5.55;;;;;;;;;;5015818;28;92455;-72
2022/10/11 07:41:04;;;;;;;18.00;5.53;;;;;;;;;;5016116;28;93235;-73
2022/10/11 07:43:30;;;;;;;9.13;4.43;;;;;;;;;;5015472;28;93390;-73
2022/10/11 07:46:02;;;;;;;13.82;5.03;;;;;;;;;;5014949;28;92519;-73
2022/10/11 07:48:31;;;;;;;18.02;5.00;;;;;;;;;;5015909;28;93640;-72
2022/10/11 07:51:05;;;;;;;15.40;5.43;;;;;;;;;;5019225;28;92907;-73
2022/10/11 07:53:36;;;;;;;28.40;6.75;;;;;;;;;;5015411;28;92504;-72
2022/10/11 07:56:02;;;;;;;14.77;4.30;;;;;;;;;;5015727;28;93726;-72
2022/10/11 07:58:29;;;;;;;16.05;5.60;;;;;;;;;;5013714;28;94922;-72
2022/10/11 08:00:56;;;;;;;31.55;8.50;;;;;;;;;;5015913;28;95464;-72
2022/10/11 08:03:22;;;;;;;30.15;9.32;;;;;;;;;;5015507;28;93503;-72
2022/10/11 08:05:51;;;;;;;33.17;9.70;;;;;;;;;;5015652;28;92416;-71
2022/10/11 08:08:18;;;;;;;33.05;9.90;;;;;;;;;;5015555;28;93069;-72
2022/10/11 08:10:44;;;;;;;37.38;10.02;;;;;;;;;;5014135;28;93422;-71
2022/10/11 08:13:10;;;;;;;25.85;7.18;;;;;;;;;;5017977;28;92372;-72
2022/10/11 08:15:36;;;;;;;29.30;6.47;;;;;;;;;;5014078;28;93351;-72
2022/10/11 08:18:03;;;;;;;19.42;5.35;;;;;;;;;;5004104;28;92539;-72
2022/10/11 08:20:30;;;;;;;14.77;4.65;;;;;;;;;;5014058;28;93129;-73
2022/10/11 08:22:56;;;;;;;11.15;4.35;;;;;;;;;;4998566;28;94746;-72
2022/10/11 08:25:22;;;;;;;22.83;5.25;;;;;;;;;;4995250;28;92558;-72
2022/10/11 08:27:48;;;;;;;17.98;5.50;;;;;;;;;;4995241;28;93205;-72
2022/10/11 08:30:15;;;;;;;17.83;4.05;;;;;;;;;;4995175;28;93282;-73
2022/10/11 08:32:41;;;;;;;16.35;3.92;;;;;;;;;;4995064;28;92406;-72
2022/10/11 08:35:07;;;;;;;16.88;3.45;;;;;;;;;;5012456;28;96621;-72
2022/10/11 08:37:34;;;;;;;18.35;3.63;;;;;;;;;;5015161;28;92386;-72
2022/10/11 08:40:02;;;;;;;19.83;3.55;;;;;;;;;;5013826;28;93399;-72
2022/10/11 08:42:37;;;;;;;20.60;3.65;;;;;;;;;;5015280;28;94786;-72
2022/10/11 08:45:07;;;;;;;26.17;4.57;;;;;;;;;;5015461;28;92423;-72
2022/10/11 08:47:41;;;;;;;25.45;2.83;;;;;;;;;;5013525;28;94711;-72
2022/10/11 08:50:14;;;;;;;23.80;3.72;;;;;;;;;;5014560;28;93372;-72
2022/10/11 08:52:46;;;;;;;15.30;2.90;;;;;;;;;;5014911;28;92504;-72
2022/10/11 08:55:33;;;;;;;24.20;3.78;;;;;;;;;;5014570;28;93042;-72
2022/10/11 08:58:00;;;;;;;11.75;2.50;;;;;;;;;;5016453;28;93466;-73
2022/10/11 09:00:29;;;;;;;20.20;3.42;;;;;;;;;;5014854;28;93165;-72
2022/10/11 09:03:04;;;;;;;17.08;3.08;;;;;;;;;;5014296;28;95009;-72
2022/10/11 09:05:37;;;;;;;19.27;3.67;;;;;;;;;;5015184;28;91739;-72
2022/10/11 09:08:04;;;;;;;16.73;3.35;;;;;;;;;;5014582;28;92781;-72
2022/10/11 09:10:45;;;;;;;20.05;3.63;;;;;;;;;;5008414;28;93756;-72
2022/10/11 09:13:30;;;;;;;14.43;3.17;;;;;;;;;;4992087;28;94844;-72
2022/10/11 09:16:17;;;;;;;20.58;3.20;;;;;;;;;;5006688;28;95866;-72
2022/10/11 09:18:55;;;;;;;18.55;3.03;;;;;;;;;;5014636;28;93374;-72
2022/10/11 09:21:30;;;;;;;12.90;2.63;;;;;;;;;;5016370;28;92464;-72
2022/10/11 09:24:00;;;;;;;33.80;3.85;;;;;;;;;;5014489;28;93421;-72
2022/10/11 09:26:30;;;;;;;11.40;2.17;;;;;;;;;;5014623;28;92652;-72
2022/10/11 09:28:56;;;;;;;19.73;3.60;;;;;;;;;;5014321;28;93388;-72
2022/10/11 09:31:27;;;;;;;12.05;3.00;;;;;;;;;;5014900;28;92756;-72
2022/10/11 09:33:54;;;;;;;21.25;3.30;;;;;;;;;;5014420;28;92427;-72
2022/10/11 09:36:32;;;;;;;9.80;2.70;;;;;;;;;;5014436;28;93113;-73
2022/10/11 09:39:06;;;;;;;12.90;2.95;;;;;;;;;;5011458;28;95783;-72
2022/10/11 09:41:40;;;;;;;11.20;2.15;;;;;;;;;;5016311;28;92489;-72
2022/10/11 09:44:07;;;;;;;13.48;2.97;;;;;;;;;;5013008;28;93395;-72
2022/10/11 09:46:35;;;;;;;12.93;2.97;;;;;;;;;;5014402;28;92390;-73
2022/10/11 09:49:06;;;;;;;20.08;2.88;;;;;;;;;;5014356;28;93162;-73
2022/10/11 09:51:32;;;;;;;;;;;;;;;;;;5014511;28;93586;-72
2022/10/11 09:53:58;;;;;;;16.73;2.58;;;;;;;;;;5014247;28;118422;-73
2022/10/11 09:56:26;;;;;;;11.05;2.60;;;;;;;;;;5014527;28;93086;-72
2022/10/11 09:59:05;;;;;;;15.60;2.65;;;;;;;;;;5013836;28;93494;-71
2022/10/11 10:01:32;;;;;;;24.60;3.15;;;;;;;;;;5013150;28;92528;-71
2022/10/11 10:04:09;;;;;;;15.10;2.42;;;;;;;;;;5015332;28;94831;-71
2022/10/11 10:06:35;;;;;;;17.77;2.90;;;;;;;;;;5014149;28;92407;-71
2022/10/11 10:09:20;;;;;;;12.93;3.33;;;;;;;;;;5014235;28;94780;-71
2022/10/11 10:11:47;;;;;;;15.35;2.83;;;;;;;;;;5013637;28;92432;-71
2022/10/11 10:14:39;;;;;;;11.02;2.67;;;;;;;;;;5015228;28;92436;-71
2022/10/11 10:17:13;;;;;;;15.13;3.13;;;;;;;;;;5014034;28;93448;-71
2022/10/11 10:19:45;;;;;;;15.52;3.13;;;;;;;;;;5000525;28;93872;-73
2022/10/11 10:22:18;;;;;;;9.20;2.63;;;;;;;;;;5011103;28;91839;-70
2022/10/11 10:24:46;;;;;;;15.55;3.38;;;;;;;;;;4997847;28;92562;-68
2022/10/11 10:27:12;;;;;;;13.00;2.83;;;;;;;;;;5000371;28;94297;-67
2022/10/11 10:29:38;;;;;;;13.68;3.38;;;;;;;;;;4995274;28;95087;-68
2022/10/11 10:32:12;;;;;;;20.17;3.58;;;;;;;;;;4999011;28;93724;-68
2022/10/11 10:34:51;;;;;;;13.27;3.10;;;;;;;;;;5008625;28;92581;-67
2022/10/11 10:37:35;;;;;;;10.23;2.90;;;;;;;;;;4997113;28;93462;-67
2022/10/11 10:40:04;;;;;;;16.08;2.83;;;;;;;;;;5009534;28;93306;-67
2022/10/11 10:42:31;;;;;;;12.95;3.55;;;;;;;;;;5007054;28;92505;-67
2022/10/11 10:44:58;;;;;;;12.45;2.75;;;;;;;;;;5026248;28;93079;-67
2022/10/11 10:47:33;;;;;;;17.05;3.25;;;;;;;;;;5008545;28;93055;-67
2022/10/11 10:50:05;;;;;;;11.18;2.78;;;;;;;;;;5019998;28;92480;-67
2022/10/11 10:52:32;;;;;;;11.02;2.70;;;;;;;;;;5010385;28;93386;-67
2022/10/11 10:55:01;;;;;;;9.75;2.20;;;;;;;;;;5013605;28;94836;-67
2022/10/11 10:57:28;;;;;;;;;;;;;;;;;;4997623;28;95751;-68
2022/10/11 11:00:03;;;;;;;11.82;2.90;;;;;;;;;;5007077;28;124401;-67
2022/10/11 11:02:38;;;;;;;12.05;3.05;;;;;;;;;;5004482;28;92477;-67
2022/10/11 11:05:31;;;;;;;9.77;2.50;;;;;;;;;;5016626;28;93133;-67
2022/10/11 11:08:06;;;;;;;13.43;2.72;;;;;;;;;;5016588;28;94507;-67
2022/10/11 11:10:44;;;;;;;11.25;2.53;;;;;;;;;;5014089;28;92460;-67
2022/10/11 11:13:17;;;;;;;9.90;2.60;;;;;;;;;;5006376;28;93471;-67
2022/10/11 11:15:50;;;;;;;12.45;2.60;;;;;;;;;;5012972;28;92427;-67
2022/10/11 11:18:31;;;;;;;10.73;2.67;;;;;;;;;;5009266;28;94933;-67
2022/10/11 11:20:58;;;;;;;13.25;3.42;;;;;;;;;;5012890;28;99270;-68
2022/10/11 11:23:35;;;;;;;8.50;2.45;;;;;;;;;;5006277;28;92508;-67
2022/10/11 11:26:21;;;;;;;14.85;3.28;;;;;;;;;;4997448;28;93134;-67
2022/10/11 11:29:06;;;;;;;9.02;2.42;;;;;;;;;;5004068;28;93427;-67
2022/10/11 11:31:32;;;;;;;18.20;3.30;;;;;;;;;;5014609;28;92447;-68
2022/10/11 11:34:04;;;;;;;16.48;2.95;;;;;;;;;;5019124;28;93493;-67
2022/10/11 11:36:42;;;;;;;16.40;2.97;;;;;;;;;;5016255;28;92441;-67
2022/10/11 11:39:16;;;;;;;12.27;2.70;;;;;;;;;;5014123;28;93180;-68
2022/10/11 11:41:47;;;;;;;18.50;3.35;;;;;;;;;;4999567;28;93344;-67
2022/10/11 11:44:21;;;;;;;15.82;3.17;;;;;;;;;;4994781;28;92557;-67
2022/10/11 11:46:53;;;;;;;13.30;2.72;;;;;;;;;;4995336;28;94824;-68
2022/10/11 11:49:22;;;;;;;11.45;2.90;;;;;;;;;;4995372;28;93434;-67
2022/10/11 11:51:49;;;;;;;15.50;2.55;;;;;;;;;;5000769;28;94183;-68
2022/10/11 11:54:27;;;;;;;9.45;3.15;;;;;;;;;;4996124;28;93186;-67
2022/10/11 11:57:22;;;;;;;10.85;2.58;;;;;;;;;;4998284;28;93437;-70
2022/10/11 12:00:03;;;;;;;8.88;2.38;;;;;;;;;;4998084;28;93209;-67
2022/10/11 12:02:40;;;;;;;11.95;3.10;;;;;;;;;;5014115;28;93601;-67
2022/10/11 12:05:07;;;;;;;15.38;3.58;;;;;;;;;;5000879;28;91728;-67
2022/10/11 12:07:46;;;;;;;14.90;3.03;;;;;;;;;;5001890;28;92776;-67
2022/10/11 12:10:14;;;;;;;15.85;3.10;;;;;;;;;;5004715;28;94137;-67
2022/10/11 12:12:41;;;;;;;11.63;3.20;;;;;;;;;;5006390;28;94999;-67
2022/10/11 12:15:07;;;;;;;11.00;2.70;;;;;;;;;;5002559;28;95699;-67
2022/10/11 12:17:57;;;;;;;13.55;2.90;;;;;;;;;;5035295;27;95621;-66
2022/10/11 12:20:28;;;;;;;13.75;2.78;;;;;;;;;;5012471;28;92488;-66
2022/10/11 12:22:59;;;;;;;17.17;3.15;;;;;;;;;;4994555;28;93704;-67
2022/10/11 12:25:25;;;;;;;17.05;3.03;;;;;;;;;;4996483;28;92394;-67
2022/10/11 12:27:53;;;;;;;43.80;3.58;;;;;;;;;;4994876;28;93487;-67
2022/10/11 12:30:37;;;;;;;10.80;2.83;;;;;;;;;;4994694;28;92613;-67
2022/10/11 12:33:05;;;;;;;13.68;2.88;;;;;;;;;;4994579;28;92743;-67
2022/10/11 12:35:31;;;;;;;15.40;2.90;;;;;;;;;;4998554;28;93421;-67
2022/10/11 12:38:09;;;;;;;11.30;2.30;;;;;;;;;;5005739;28;96001;-67
2022/10/11 12:40:44;;;;;;;15.48;2.58;;;;;;;;;;5010072;28;92500;-67
2022/10/11 12:43:14;;;;;;;13.10;2.80;;;;;;;;;;5000354;28;93015;-68
2022/10/11 12:45:42;;;;;;;10.87;2.83;;;;;;;;;;4999411;28;92422;-67
2022/10/11 12:48:13;;;;;;;9.73;2.70;;;;;;;;;;5014378;28;93543;-67
2022/10/11 12:50:46;;;;;;;11.18;3.30;;;;;;;;;;5009756;28;93383;-67
2022/10/11 12:53:39;;;;;;;15.15;3.38;;;;;;;;;;5005319;28;92486;-67
2022/10/11 12:56:24;;;;;;;16.10;3.53;;;;;;;;;;5015286;28;93530;-67
2022/10/11 12:59:00;;;;;;;16.60;2.80;;;;;;;;;;5014337;28;92868;-67
2022/10/11 13:01:31;;;;;;;11.18;2.83;;;;;;;;;;5011544;28;92620;-67
2022/10/11 13:04:10;;;;;;;13.10;3.00;;;;;;;;;;4993534;28;94754;-67
2022/10/11 13:06:44;;;;;;;15.35;3.25;;;;;;;;;;4996994;28;94499;-67
2022/10/11 13:09:10;;;;;;;10.88;2.90;;;;;;;;;;4994387;28;94134;-67
2022/10/11 13:11:44;;;;;;;13.15;2.47;;;;;;;;;;4995108;28;96204;-67
2022/10/11 13:14:17;;;;;;;10.57;2.70;;;;;;;;;;5010246;28;92427;-67
2022/10/11 13:17:04;;;;;;;10.63;2.83;;;;;;;;;;5013048;28;93606;-67
2022/10/11 13:19:32;;;;;;;10.43;2.72;;;;;;;;;;5013430;28;93359;-67
2022/10/11 13:22:00;;;;;;;11.02;3.38;;;;;;;;;;5006529;28;92847;-67
2022/10/11 13:24:33;;;;;;;9.57;2.45;;;;;;;;;;4994734;28;92442;-67
2022/10/11 13:26:59;;;;;;;16.67;3.30;;;;;;;;;;4995508;28;94735;-68
2022/10/11 13:29:37;;;;;;;12.73;2.78;;;;;;;;;;4995808;28;94788;-68
2022/10/11 13:32:23;;;;;;;14.98;3.00;;;;;;;;;;5010506;28;93346;-69
2022/10/11 13:34:53;;;;;;;9.80;2.40;;;;;;;;;;4993558;28;94056;-68
2022/10/11 13:37:25;;;;;;;14.18;2.58;;;;;;;;;;4998717;28;92963;-68
2022/10/11 13:39:53;;;;;;;12.18;2.47;;;;;;;;;;4992804;28;92480;-68
2022/10/11 13:42:22;;;;;;;9.50;2.63;;;;;;;;;;5003222;28;92795;-69
2022/10/11 13:44:48;;;;;;;22.05;2.83;;;;;;;;;;5013793;28;93121;-67
2022/10/11 13:47:17;;;;;;;14.38;3.17;;;;;;;;;;5014758;28;92659;-68
2022/10/11 13:49:44;;;;;;;8.32;2.00;;;;;;;;;;5018062;28;92411;-68
2022/10/11 13:52:17;;;;;;;10.45;2.30;;;;;;;;;;5011535;28;93719;-68
2022/10/11 13:55:13;;;;;;;17.75;2.60;;;;;;;;;;5008731;28;94838;-68
2022/10/11 13:57:42;;;;;;;16.02;2.88;;;;;;;;;;4997433;28;95997;-67
2022/10/11 14:00:19;;;;;;;13.27;3.05;;;;;;;;;;5015727;28;93334;-70
2022/10/11 14:02:47;;;;;;;16.35;2.80;;;;;;;;;;5008398;28;92464;-68
2022/10/11 14:05:26;;;;;;;16.23;2.58;;;;;;;;;;4996255;28;93166;-68
2022/10/11 14:07:52;;;;;;;16.17;2.78;;;;;;;;;;5000623;28;94593;-69
2022/10/11 14:10:20;;;;;;;15.15;2.53;;;;;;;;;;5014167;28;92480;-67
2022/10/11 14:12:56;;;;;;;9.45;2.42;;;;;;;;;;5015567;28;93197;-68
2022/10/11 14:15:29;;;;;;;12.30;2.75;;;;;;;;;;5015073;28;92500;-69
2022/10/11 14:17:56;;;;;;;9.07;2.30;;;;;;;;;;5011716;28;92415;-69
2022/10/11 14:20:23;;;;;;;8.57;2.55;;;;;;;;;;4994089;28;96207;-69
2022/10/11 14:22:56;;;;;;;10.77;2.22;;;;;;;;;;5004155;28;92568;-69
2022/10/11 14:25:22;;;;;;;17.88;3.00;;;;;;;;;;4995491;28;93554;-70
2022/10/11 14:27:49;;;;;;;16.40;2.83;;;;;;;;;;4996922;28;93385;-69
2022/10/11 14:30:20;;;;;;;14.98;2.70;;;;;;;;;;4994597;28;92511;-70
2022/10/11 14:32:53;;;;;;;18.95;5.00;;;;;;;;;;4998100;28;93572;-71
2022/10/11 14:35:24;;;;;;;9.07;2.13;;;;;;;;;;4998740;28;93764;-70
2022/10/11 14:37:51;;;;;;;11.18;2.10;;;;;;;;;;4997030;28;93504;-70
2022/10/11 14:40:19;;;;;;;16.15;3.30;;;;;;;;;;5009534;28;93510;-70
2022/10/11 14:42:45;;;;;;;12.52;2.67;;;;;;;;;;5017059;28;92759;-69
2022/10/11 14:45:12;;;;;;;17.33;3.13;;;;;;;;;;5011116;28;94826;-69
2022/10/11 14:47:38;;;;;;;12.88;2.80;;;;;;;;;;5009312;28;93310;-69
2022/10/11 14:50:28;;;;;;;12.60;2.70;;;;;;;;;;4996196;28;92405;-69
2022/10/11 14:52:55;;;;;;;11.18;2.72;;;;;;;;;;4992016;28;93181;-69